Time;durP1;ratioP1;P1;durP2;ratioP2;P2;SDS_P1;SDS_P2;PMS_P1;PMS_P2;Temp;Humidity;BMP_temperature;BMP_pressure;BME280_temperature;BME280_humidity;BME280_pressure;Samples;Min_cycle;Max_cycle;Signal;HPM_P1;HPM_P2
2022/12/13 00:01:14;;;;;;;9.17;5.90;;;;;;;1.32;60.38;99764.25;4955159;28;97283;-80
2022/12/13 00:03:39;;;;;;;11.93;6.73;;;;;;;1.28;60.50;99755.66;4955483;28;96846;-79
2022/12/13 00:06:10;;;;;;;8.80;6.63;;;;;;;1.30;60.58;99758.22;4949884;28;101306;-80
2022/12/13 00:08:36;;;;;;;7.83;5.63;;;;;;;1.32;60.85;99762.53;4953902;28;101572;-81
2022/12/13 00:11:04;;;;;;;9.27;6.27;;;;;;;1.32;60.40;99766.84;4938277;28;97339;-80
2022/12/13 00:13:29;;;;;;;8.83;5.90;;;;;;;1.26;61.01;99753.97;4954462;28;97395;-80
2022/12/13 00:16:00;;;;;;;8.90;6.07;;;;;;;1.24;60.66;99766.03;4952152;28;101224;-81
2022/12/13 00:18:26;;;;;;;8.53;5.73;;;;;;;1.08;60.69;99736.81;4954088;28;100989;-80
2022/12/13 00:20:52;;;;;;;9.80;6.53;;;;;;;1.22;60.69;99768.63;4949234;28;97470;-80
2022/12/13 00:23:18;;;;;;;9.67;6.33;;;;;;;1.10;61.11;99745.41;4985915;28;96979;-79
2022/12/13 00:25:43;;;;;;;10.77;6.43;;;;;;;1.21;60.93;99756.56;4950524;28;101698;-82
2022/12/13 00:28:09;;;;;;;9.07;6.13;;;;;;;1.08;61.42;99723.88;4950806;28;97885;-82
2022/12/13 00:30:34;;;;;;;8.57;6.23;;;;;;;1.21;61.31;99748.78;4946745;28;96723;-83
2022/12/13 00:33:00;;;;;;;9.13;6.10;;;;;;;1.28;60.55;99749.63;4954574;28;96960;-82
2022/12/13 00:35:25;;;;;;;9.03;6.30;;;;;;;1.27;61.16;99759.09;4953674;28;101188;-82
2022/12/13 00:37:51;;;;;;;9.17;5.80;;;;;;;1.32;60.99;99759.09;4935919;28;101480;-83
2022/12/13 00:40:17;;;;;;;9.63;6.10;;;;;;;1.29;60.82;99764.28;4965924;28;97119;-83
2022/12/13 00:42:42;;;;;;;9.20;6.20;;;;;;;1.29;61.15;99762.56;4970269;28;97945;-83
2022/12/13 00:45:08;;;;;;;8.13;6.30;;;;;;;1.32;61.33;99769.44;4937924;28;101866;-82
2022/12/13 00:47:35;;;;;;;10.27;6.40;;;;;;;1.13;61.04;99742.78;4970992;28;97582;-84
2022/12/13 00:50:01;;;;;;;10.43;6.47;;;;;;;1.24;61.43;99758.25;4954995;28;96762;-83
2022/12/13 00:52:27;;;;;;;10.40;6.23;;;;;;;1.28;61.59;99766.00;4937557;28;97042;-82
2022/12/13 00:54:52;;;;;;;8.10;5.70;;;;;;;1.27;61.17;99761.69;4928365;28;102361;-83
2022/12/13 00:57:18;;;;;;;10.20;6.07;;;;;;;1.10;61.31;99743.66;4967735;28;97696;-82
2022/12/13 00:59:43;;;;;;;8.50;5.77;;;;;;;1.29;61.81;99774.63;4986987;28;97426;-83
2022/12/13 01:02:09;;;;;;;9.53;6.60;;;;;;;1.12;61.32;99760.03;4952371;28;96823;-82
2022/12/13 01:04:35;;;;;;;8.50;5.83;;;;;;;1.26;60.91;99779.81;4953975;28;97978;-83
2022/12/13 01:07:01;;;;;;;11.10;6.37;;;;;;;1.15;61.46;99774.69;4934198;28;101398;-83
2022/12/13 01:09:28;;;;;;;7.70;5.60;;;;;;;0.98;60.94;99746.31;4949894;28;97399;-83
2022/12/13 01:12:02;;;;;;;12.47;6.07;;;;;;;1.22;61.29;99781.56;4948084;28;97172;-83
2022/12/13 01:14:29;;;;;;;9.00;6.20;;;;;;;1.20;61.75;99787.59;4964110;28;101496;-83
2022/12/13 01:16:54;;;;;;;8.90;6.07;;;;;;;1.15;61.47;99776.41;4937351;28;101054;-80
2022/12/13 01:19:24;;;;;;;8.30;6.17;;;;;;;1.20;61.60;99775.53;4950042;28;96764;-81
2022/12/13 01:21:55;;;;;;;8.00;5.60;;;;;;;1.18;61.26;99771.22;4950772;28;96935;-80
2022/12/13 01:24:23;;;;;;;9.50;6.57;;;;;;;1.21;61.26;99771.22;4965449;28;101493;-81
2022/12/13 01:26:49;;;;;;;8.30;6.03;;;;;;;1.10;61.42;99758.31;4952914;28;101840;-81
2022/12/13 01:29:16;;;;;;;10.87;6.40;;;;;;;1.17;61.57;99761.75;4946972;28;97082;-80
2022/12/13 01:31:42;;;;;;;8.20;6.37;;;;;;;1.20;61.14;99757.44;4936822;28;97267;-80
2022/12/13 01:34:11;;;;;;;11.23;6.60;;;;;;;1.12;61.52;99760.03;4957783;28;101166;-80
2022/12/13 01:36:42;;;;;;;8.83;5.93;;;;;;;1.05;61.31;99750.59;4951045;28;101299;-80
2022/12/13 01:39:09;;;;;;;8.23;5.87;;;;;;;1.00;60.89;99742.00;4953225;28;97260;-81
2022/12/13 01:41:35;;;;;;;9.03;6.40;;;;;;;1.20;61.41;99772.09;4952886;28;97260;-81
2022/12/13 01:44:05;;;;;;;9.43;6.27;;;;;;;1.22;61.19;99772.91;4959558;28;97388;-80
2022/12/13 01:46:33;;;;;;;9.00;6.50;;;;;;;1.12;61.32;99754.88;4952410;28;100010;-81
2022/12/13 01:49:08;;;;;;;8.90;6.00;;;;;;;1.10;61.57;99760.91;4968847;28;97322;-80
2022/12/13 01:51:43;;;;;;;9.23;6.60;;;;;;;1.19;60.63;99784.13;4930793;28;96942;-81
2022/12/13 01:54:12;;;;;;;8.03;6.30;;;;;;;1.18;60.83;99778.97;4984588;28;101268;-80
2022/12/13 01:56:43;;;;;;;9.83;6.13;;;;;;;1.11;60.52;99768.69;4947106;28;97976;-83
2022/12/13 01:59:10;;;;;;;7.88;5.30;;;;;;;1.14;60.52;99780.72;4940814;28;96964;-83
2022/12/13 02:01:36;;;;;;;7.33;5.20;;;;;;;1.04;60.41;99761.78;4947389;28;97344;-83
2022/12/13 02:04:02;;;;;;;8.53;6.13;;;;;;;1.13;60.65;99789.34;4926820;28;101589;-82
2022/12/13 02:06:39;;;;;;;6.90;5.57;;;;;;;1.11;60.72;99791.09;4934919;28;101195;-82
2022/12/13 02:09:06;;;;;;;10.03;5.60;;;;;;;0.97;60.71;99773.03;4985682;28;96710;-82
2022/12/13 02:11:33;;;;;;;9.40;6.10;;;;;;;1.08;60.08;99793.69;4969245;28;97206;-82
2022/12/13 02:13:58;;;;;;;8.17;5.80;;;;;;;0.99;60.15;99760.97;4969903;28;98495;-82
2022/12/13 02:16:52;;;;;;;7.53;5.67;;;;;;;1.03;60.40;99773.00;4968636;28;100218;-81
2022/12/13 02:19:47;;;;;;;9.97;6.10;;;;;;;1.09;60.18;99790.22;4985175;28;97775;-80
2022/12/13 02:23:09;;;;;;;8.10;5.70;;;;;;;1.05;60.12;99781.63;4963937;28;97791;-80
2022/12/13 02:26:00;;;;;;;7.97;5.40;;;;;;;1.09;60.00;99787.63;4910035;28;97919;-80
2022/12/13 02:28:25;;;;;;;7.37;5.13;;;;;;;0.97;59.85;99774.78;4967284;28;98665;-80
2022/12/13 02:30:53;;;;;;;8.40;5.63;;;;;;;1.00;59.85;99785.09;4969930;28;96795;-80
2022/12/13 02:33:44;;;;;;;8.07;5.20;;;;;;;1.05;60.00;99788.53;4985598;28;97408;-79
2022/12/13 02:36:31;;;;;;;8.33;5.37;;;;;;;1.04;60.15;99786.78;4964890;28;101429;-79
2022/12/13 02:39:02;;;;;;;6.43;5.10;;;;;;;1.07;60.01;99794.53;4926380;28;101771;-81
2022/12/13 02:41:36;;;;;;;9.10;6.27;;;;;;;1.04;60.08;99791.97;4968362;28;97412;-81
2022/12/13 02:44:14;;;;;;;8.73;5.47;;;;;;;0.89;60.26;99767.03;4943397;28;97411;-80
2022/12/13 02:47:04;;;;;;;8.23;5.60;;;;;;;0.90;60.10;99772.22;4968455;28;98500;-79
2022/12/13 02:49:32;;;;;;;10.17;6.07;;;;;;;1.02;59.83;99796.25;4962990;28;101224;-80
2022/12/13 02:51:59;;;;;;;9.83;6.23;;;;;;;1.00;59.85;99788.53;4981834;28;97275;-82
2022/12/13 02:54:25;;;;;;;7.43;5.50;;;;;;;1.02;60.16;99802.31;4936685;28;96868;-82
2022/12/13 02:56:55;;;;;;;9.63;5.77;;;;;;;0.99;60.25;99786.81;4964615;28;102171;-83
2022/12/13 02:59:23;;;;;;;7.20;5.17;;;;;;;0.92;59.48;99772.19;4947378;28;101284;-83
2022/12/13 03:02:31;;;;;;;7.60;5.43;;;;;;;0.95;59.52;99779.94;4958547;28;98002;-83
2022/12/13 03:08:43;;;;;;;7.13;4.97;;;;;;;0.92;59.47;99794.59;4971380;28;101691;-83
2022/12/13 03:11:12;;;;;;;9.03;5.33;;;;;;;0.86;59.43;99788.56;4973690;28;97781;-82
2022/12/13 03:13:56;;;;;;;8.07;5.17;;;;;;;0.76;58.84;99773.13;4952673;28;97105;-82
2022/12/13 03:16:23;;;;;;;7.13;4.87;;;;;;;0.87;58.62;99790.31;4950374;28;97185;-82
2022/12/13 03:18:51;;;;;;;7.17;4.80;;;;;;;0.85;58.78;99801.50;4952164;28;101485;-83
2022/12/13 03:21:17;;;;;;;8.27;5.10;;;;;;;0.70;58.75;99781.75;4951753;28;97499;-82
2022/12/13 03:23:42;;;;;;;7.47;5.33;;;;;;;0.74;58.80;99788.63;4972522;28;97107;-83
2022/12/13 03:26:14;;;;;;;6.80;5.00;;;;;;;0.80;58.84;99798.06;4955367;28;97032;-83
2022/12/13 03:28:40;;;;;;;7.38;4.97;;;;;;;0.67;58.54;99781.75;4944372;28;101234;-83
2022/12/13 03:31:06;;;;;;;7.43;5.13;;;;;;;0.79;58.54;99801.53;4958037;28;101268;-82
2022/12/13 03:33:32;;;;;;;8.43;5.23;;;;;;;0.70;58.75;99786.03;4934995;28;97566;-82
2022/12/13 03:35:57;;;;;;;6.63;4.70;;;;;;;0.73;58.48;99793.78;4955451;28;97088;-82
2022/12/13 03:38:24;;;;;;;6.60;5.07;;;;;;;0.58;58.37;99777.47;4954011;28;100729;-84
2022/12/13 03:40:56;;;;;;;6.40;4.73;;;;;;;0.56;58.09;99774.03;4965477;28;97532;-82
2022/12/13 03:43:22;;;;;;;7.27;4.83;;;;;;;0.62;58.13;99796.41;4985919;28;97073;-84
2022/12/13 03:45:48;;;;;;;5.90;4.37;;;;;;;0.60;58.16;99793.81;4953711;28;96822;-83
2022/12/13 03:48:14;;;;;;;7.67;4.83;;;;;;;0.61;58.24;99799.81;4981733;28;97986;-84
2022/12/13 03:50:39;;;;;;;7.07;4.97;;;;;;;0.58;58.34;99792.97;4953676;28;101360;-83
2022/12/13 03:53:05;;;;;;;6.33;4.80;;;;;;;0.41;58.10;99779.22;4942791;28;96739;-82
2022/12/13 03:55:30;;;;;;;8.27;5.23;;;;;;;0.52;57.88;99800.69;4935474;28;96817;-82
2022/12/13 03:57:56;;;;;;;6.73;4.40;;;;;;;0.46;57.72;99800.72;4953115;28;98027;-82
2022/12/13 04:00:21;;;;;;;6.63;4.50;;;;;;;0.44;57.97;99800.72;4936536;28;101306;-82
2022/12/13 04:02:47;;;;;;;6.17;4.33;;;;;;;0.35;58.10;99786.94;4922280;28;96885;-83
2022/12/13 04:05:13;;;;;;;8.20;4.80;;;;;;;0.43;58.03;99795.56;4958659;28;96860;-82
2022/12/13 04:07:39;;;;;;;8.17;4.93;;;;;;;0.42;58.23;99799.88;4969118;28;97837;-83
2022/12/13 04:10:05;;;;;;;6.43;4.80;;;;;;;0.38;58.03;99800.75;4926287;28;101140;-82
2022/12/13 04:15:14;;;;;;;6.63;4.90;;;;;;;0.36;57.97;99805.03;4955328;28;97373;-82
2022/12/13 04:17:40;;;;;;;8.80;5.23;;;;;;;0.31;57.93;99791.25;4969528;28;98099;-83
2022/12/13 04:20:06;;;;;;;7.07;4.83;;;;;;;0.26;57.94;99784.38;4961456;28;100671;-83
2022/12/13 04:22:32;;;;;;;7.53;5.63;;;;;;;0.25;58.07;99782.69;4968432;28;97163;-82
2022/12/13 04:24:57;;;;;;;9.10;5.60;;;;;;;0.32;58.00;99799.88;4953926;28;97162;-82
2022/12/13 04:27:23;;;;;;;7.33;4.90;;;;;;;0.26;57.67;99786.97;4969545;28;101468;-82
2022/12/13 04:29:48;;;;;;;9.20;5.83;;;;;;;0.38;57.86;99810.22;4946540;28;101431;-82
2022/12/13 04:32:14;;;;;;;8.47;5.70;;;;;;;0.39;58.38;99811.94;4954980;28;96679;-82
2022/12/13 04:34:39;;;;;;;8.67;5.70;;;;;;;0.41;57.75;99811.06;4934584;28;97131;-83
2022/12/13 04:37:05;;;;;;;8.57;5.27;;;;;;;0.38;58.20;99802.47;4965818;28;97827;-83
2022/12/13 04:39:31;;;;;;;7.93;5.57;;;;;;;0.29;57.92;99781.78;4952739;28;97379;-83
2022/12/13 04:41:56;;;;;;;12.97;6.60;;;;;;;0.33;58.32;99786.97;4953021;28;97224;-83
2022/12/13 04:44:22;;;;;;;9.73;6.53;;;;;;;0.37;58.02;99795.56;4965899;28;97083;-83
2022/12/13 04:46:47;;;;;;;7.93;5.70;;;;;;;0.38;58.18;99792.13;4970392;28;101318;-83
2022/12/13 04:49:13;;;;;;;7.43;5.57;;;;;;;0.42;58.27;99794.69;4954096;28;97906;-84
2022/12/13 04:51:38;;;;;;;8.83;5.97;;;;;;;0.36;58.61;99789.53;4954135;28;97223;-83
2022/12/13 04:54:04;;;;;;;8.57;5.93;;;;;;;0.37;58.32;99785.22;4951300;28;97438;-82
2022/12/13 04:56:29;;;;;;;8.37;5.57;;;;;;;0.46;58.27;99803.28;4936684;28;101563;-83
2022/12/13 04:58:55;;;;;;;8.83;5.77;;;;;;;0.44;58.08;99800.72;4937410;28;101148;-83
2022/12/13 05:01:20;;;;;;;9.67;6.67;;;;;;;0.44;58.37;99803.31;4986589;28;97138;-82
2022/12/13 05:03:46;;;;;;;11.83;7.33;;;;;;;0.47;58.91;99806.72;4937615;28;96896;-82
2022/12/13 05:06:12;;;;;;;10.73;6.90;;;;;;;0.44;59.25;99802.47;4969200;28;98462;-84
2022/12/13 05:08:39;;;;;;;10.93;7.53;;;;;;;0.47;58.90;99801.56;4969458;28;98169;-83
2022/12/13 05:11:06;;;;;;;14.63;8.60;;;;;;;0.49;59.19;99811.03;4951110;28;97282;-83
2022/12/13 05:13:32;;;;;;;12.70;8.03;;;;;;;0.42;59.93;99799.00;4962489;28;97586;-83
2022/12/13 05:16:03;;;;;;;14.17;8.20;;;;;;;0.46;59.79;99803.28;4951432;28;101003;-83
2022/12/13 05:18:29;;;;;;;18.07;8.83;;;;;;;0.38;59.66;99793.00;4936270;28;101693;-83
2022/12/13 05:20:55;;;;;;;15.23;8.60;;;;;;;0.39;59.81;99786.97;4937767;28;97019;-83
2022/12/13 05:23:23;;;;;;;14.13;8.90;;;;;;;0.47;60.55;99793.81;4954545;28;97771;-83
2022/12/13 05:25:49;;;;;;;15.70;9.93;;;;;;;0.38;60.28;99790.41;4986196;28;101142;-82
2022/12/13 05:28:15;;;;;;;19.40;10.67;;;;;;;0.46;60.51;99795.53;4953751;28;101061;-83
2022/12/13 05:30:41;;;;;;;15.43;9.37;;;;;;;0.51;60.50;99806.75;4936304;28;97266;-82
2022/12/13 05:33:07;;;;;;;15.20;9.17;;;;;;;0.44;60.92;99798.16;4976798;28;96991;-81
2022/12/13 05:35:32;;;;;;;16.50;10.07;;;;;;;0.43;60.55;99791.25;4967668;28;101191;-81
2022/12/13 05:37:58;;;;;;;18.33;9.80;;;;;;;0.45;60.99;99796.41;4950428;28;101544;-82
2022/12/13 05:40:25;;;;;;;16.20;9.93;;;;;;;0.45;60.52;99802.44;4950712;28;96996;-81
2022/12/13 05:42:51;;;;;;;12.13;7.70;;;;;;;0.51;61.19;99805.88;4948058;28;96726;-81
2022/12/13 05:45:17;;;;;;;13.47;8.77;;;;;;;0.50;61.04;99805.03;4934894;28;101005;-80
2022/12/13 05:47:43;;;;;;;15.23;9.00;;;;;;;0.49;61.03;99802.44;4950163;28;100281;-81
2022/12/13 05:50:09;;;;;;;18.90;9.10;;;;;;;0.54;60.59;99808.47;4969978;28;96733;-81
2022/12/13 05:52:35;;;;;;;18.97;9.70;;;;;;;0.52;60.69;99811.03;4953518;28;97000;-81
2022/12/13 05:55:00;;;;;;;13.53;9.33;;;;;;;0.40;60.85;99790.41;4936952;28;100150;-81
2022/12/13 05:57:26;;;;;;;14.43;9.20;;;;;;;0.44;60.80;99802.47;4952965;28;101594;-80
2022/12/13 05:59:51;;;;;;;18.73;12.90;;;;;;;0.45;61.37;99805.03;4969953;28;96898;-82
2022/12/13 06:02:17;;;;;;;18.37;10.87;;;;;;;0.52;61.51;99811.03;4953778;28;96935;-82
2022/12/13 06:04:43;;;;;;;17.97;10.87;;;;;;;0.55;61.53;99816.19;4953198;28;100370;-83
2022/12/13 06:07:10;;;;;;;15.83;9.90;;;;;;;0.55;61.14;99815.34;4953713;28;98427;-79
2022/12/13 06:09:35;;;;;;;17.30;11.07;;;;;;;0.57;61.62;99805.88;4936532;28;97060;-81
2022/12/13 06:12:01;;;;;;;15.93;10.00;;;;;;;0.48;61.31;99796.41;4937283;28;97724;-82
2022/12/13 06:14:26;;;;;;;15.33;9.83;;;;;;;0.42;61.40;99793.84;4952598;28;100963;-82
2022/12/13 06:16:52;;;;;;;16.33;10.67;;;;;;;0.57;61.63;99808.47;4969487;28;98306;-81
2022/12/13 06:19:19;;;;;;;17.93;9.83;;;;;;;0.49;61.31;99795.53;4952745;28;96766;-82
2022/12/13 06:21:44;;;;;;;17.37;10.43;;;;;;;0.57;61.50;99816.19;4953271;28;96933;-81
2022/12/13 06:24:10;;;;;;;17.57;10.37;;;;;;;0.47;61.17;99801.56;4951699;28;101686;-80
2022/12/13 06:26:36;;;;;;;16.90;10.20;;;;;;;0.33;61.07;99784.38;4935104;28;101486;-82
2022/12/13 06:29:01;;;;;;;17.83;10.07;;;;;;;0.58;61.28;99818.81;4971526;28;97290;-81
2022/12/13 06:31:27;;;;;;;18.97;10.03;;;;;;;0.41;60.45;99797.31;4953660;28;98193;-81
2022/12/13 06:33:52;;;;;;;16.10;9.53;;;;;;;0.58;60.70;99820.50;4969230;28;97708;-85
2022/12/13 06:36:18;;;;;;;15.13;9.07;;;;;;;0.58;60.87;99821.38;4957380;28;101471;-82
2022/12/13 06:38:44;;;;;;;14.70;9.60;;;;;;;0.58;61.07;99829.13;4936157;28;96850;-82
2022/12/13 06:41:15;;;;;;;14.93;9.63;;;;;;;0.29;60.70;99779.22;4937269;28;97558;-81
2022/12/13 06:43:46;;;;;;;14.75;9.77;;;;;;;0.44;60.91;99805.03;4959436;28;98609;-91
2022/12/13 06:46:12;;;;;;;15.97;8.50;;;;;;;0.41;61.09;99800.75;4956012;28;100894;-86
2022/12/13 06:48:41;;;;;;;15.60;9.93;;;;;;;0.33;61.19;99786.13;4977008;28;96857;-88
2022/12/13 06:51:07;;;;;;;15.87;9.70;;;;;;;0.28;61.18;99788.69;4963426;28;98436;-87
2022/12/13 06:53:36;;;;;;;15.87;8.60;;;;;;;0.27;61.19;99786.13;4942112;28;100044;-87
2022/12/13 06:56:12;;;;;;;15.17;9.17;;;;;;;0.12;61.44;99761.19;4950186;28;99818;-88
2022/12/13 06:58:39;;;;;;;14.80;8.97;;;;;;;0.09;61.83;99754.28;4940637;28;97338;-87
2022/12/13 07:01:08;;;;;;;16.33;9.67;;;;;;;0.38;61.71;99805.06;4947170;28;97341;-87
2022/12/13 07:03:34;;;;;;;17.20;10.43;;;;;;;0.32;61.76;99798.16;4944787;28;99779;-87
2022/12/13 07:06:05;;;;;;;15.00;10.13;;;;;;;0.16;62.03;99768.06;4957917;28;100760;-87
2022/12/13 07:08:30;;;;;;;15.33;10.17;;;;;;;0.40;61.90;99816.22;4943540;28;96941;-88
2022/12/13 07:10:56;;;;;;;16.30;9.33;;;;;;;0.51;61.52;99837.72;4959923;28;97008;-89
2022/12/13 07:13:22;;;;;;;14.93;9.90;;;;;;;0.26;61.97;99812.78;4938831;28;101048;-88
2022/12/13 07:15:48;;;;;;;14.70;8.97;;;;;;;0.10;61.68;99768.91;4956849;28;101469;-88
2022/12/13 07:18:16;;;;;;;14.30;9.87;;;;;;;0.24;61.82;99794.72;4942134;28;96786;-89
2022/12/13 07:20:43;;;;;;;15.50;10.50;;;;;;;0.04;61.60;99770.66;4946422;28;96831;-88
2022/12/13 07:23:09;;;;;;;16.70;10.40;;;;;;;0.26;61.93;99813.63;4957552;28;101756;-88
2022/12/13 07:25:35;;;;;;;18.07;11.37;;;;;;;0.03;61.73;99766.31;4954621;28;101178;-87
2022/12/13 07:28:03;;;;;;;16.43;10.57;;;;;;;0.10;61.97;99781.81;4974384;28;97455;-88
2022/12/13 07:30:34;;;;;;;17.27;11.00;;;;;;;0.34;61.78;99811.91;4941539;28;96959;-94
2022/12/13 07:33:01;;;;;;;17.53;10.60;;;;;;;0.48;61.45;99827.41;4974998;28;101206;-87
2022/12/13 07:35:27;;;;;;;17.57;11.63;;;;;;;0.48;61.52;99834.31;4939259;28;100588;-89
2022/12/13 07:37:53;;;;;;;18.63;11.70;;;;;;;0.27;61.71;99794.72;4943366;28;96750;-88
2022/12/13 07:40:18;;;;;;;16.50;11.17;;;;;;;0.20;61.78;99796.47;4943686;28;96994;-83
2022/12/13 07:42:51;;;;;;;18.43;11.40;;;;;;;0.64;61.35;99861.81;4953838;28;101166;-88
2022/12/13 07:45:17;;;;;;;15.93;10.47;;;;;;;0.64;61.30;99862.69;4951146;28;99986;-89
2022/12/13 07:47:43;;;;;;;18.60;10.60;;;;;;;0.56;61.90;99848.94;4954685;28;96674;-90
2022/12/13 07:50:09;;;;;;;16.47;10.37;;;;;;;0.64;61.13;99860.13;4952184;28;96722;-89
2022/12/13 07:52:34;;;;;;;18.50;10.43;;;;;;;0.39;61.31;99817.09;4956599;28;101564;-90
2022/12/13 07:55:01;;;;;;;20.47;11.60;;;;;;;0.64;61.72;99865.28;4956956;28;98024;-88
2022/12/13 07:57:26;;;;;;;18.37;11.20;;;;;;;0.67;61.02;99861.84;4957456;28;97369;-88
2022/12/13 07:59:52;;;;;;;16.53;10.27;;;;;;;0.62;61.31;99855.81;4953742;28;96781;-88
2022/12/13 08:02:17;;;;;;;17.93;10.27;;;;;;;0.55;61.22;99846.34;4956744;28;101246;-90
2022/12/13 08:04:43;;;;;;;18.27;10.80;;;;;;;0.65;61.46;99864.41;4957934;28;98407;-88
2022/12/13 08:07:09;;;;;;;17.47;10.67;;;;;;;0.72;61.13;99860.09;4941101;28;96702;-87
2022/12/13 08:09:35;;;;;;;18.23;10.73;;;;;;;0.75;61.13;99870.41;4973267;28;96809;-91
2022/12/13 08:12:01;;;;;;;16.50;10.10;;;;;;;0.77;60.65;99858.38;4937635;28;98935;-89
2022/12/13 08:14:27;;;;;;;15.90;10.33;;;;;;;0.86;60.55;99866.09;4956861;28;98429;-95
2022/12/13 08:16:55;;;;;;;17.10;11.20;;;;;;;0.64;60.47;99835.97;4955579;28;99138;-93
2022/12/13 08:19:23;;;;;;;20.33;11.77;;;;;;;0.89;60.09;99860.91;4942776;28;96871;-90
2022/12/13 08:21:51;;;;;;;19.13;11.13;;;;;;;0.81;60.39;99844.56;4953140;28;100330;-89
2022/12/13 08:24:18;;;;;;;17.80;10.63;;;;;;;0.92;60.02;99847.13;4953428;28;98429;-90
2022/12/13 08:26:43;;;;;;;16.13;9.80;;;;;;;0.97;60.02;99824.72;4957309;28;97200;-89
2022/12/13 08:29:11;;;;;;;14.87;10.23;;;;;;;1.27;59.39;99848.75;4957364;28;97160;-89
2022/12/13 08:31:36;;;;;;;15.23;9.93;;;;;;;1.45;58.81;99868.50;4956315;28;101873;-84
2022/12/13 08:34:02;;;;;;;14.00;9.23;;;;;;;1.54;58.90;99877.13;4948972;28;100917;-84
2022/12/13 08:36:27;;;;;;;16.73;9.80;;;;;;;1.63;58.37;99877.91;4939943;28;96732;-84
2022/12/13 08:38:57;;;;;;;14.57;9.23;;;;;;;1.22;57.60;99803.94;4966026;28;97304;-86
2022/12/13 08:41:23;;;;;;;17.10;9.70;;;;;;;1.62;57.94;99871.88;4974574;28;101025;-86
2022/12/13 08:43:49;;;;;;;16.40;10.87;;;;;;;1.44;57.95;99838.34;4938422;28;100594;-87
2022/12/13 08:46:14;;;;;;;15.83;10.00;;;;;;;1.62;57.83;99858.09;4946708;28;96865;-86
2022/12/13 08:48:40;;;;;;;15.07;9.37;;;;;;;1.87;57.53;99875.22;4952356;28;96835;-87
2022/12/13 08:51:08;;;;;;;13.33;8.77;;;;;;;1.71;57.52;99858.88;4964331;28;98351;-87
2022/12/13 08:53:34;;;;;;;13.87;8.90;;;;;;;1.66;57.17;99859.78;4936133;28;101292;-87
2022/12/13 08:56:03;;;;;;;13.70;8.70;;;;;;;1.59;57.72;99866.72;4959126;28;97249;-81
2022/12/13 08:58:29;;;;;;;11.93;7.90;;;;;;;1.73;57.87;99885.63;4934714;28;96969;-81
2022/12/13 09:00:55;;;;;;;11.93;7.17;;;;;;;1.42;57.71;99845.25;4952339;28;100864;-84
2022/12/13 09:03:20;;;;;;;10.27;7.00;;;;;;;1.47;58.03;99865.06;4954110;28;101068;-89
2022/12/13 09:05:50;;;;;;;11.37;7.07;;;;;;;1.40;58.05;99858.19;4969025;28;97462;-91
2022/12/13 09:08:17;;;;;;;13.67;8.20;;;;;;;1.40;57.89;99865.97;4970918;28;97197;-88
2022/12/13 09:10:43;;;;;;;11.67;7.30;;;;;;;1.42;58.03;99869.38;4955382;28;101468;-89
2022/12/13 09:13:08;;;;;;;12.10;7.63;;;;;;;1.46;57.80;99865.06;4929785;28;101181;-88
2022/12/13 09:15:38;;;;;;;11.70;7.23;;;;;;;1.24;57.59;99833.25;4949231;28;99825;-90
2022/12/13 09:18:04;;;;;;;11.80;6.83;;;;;;;1.46;57.74;99865.94;4938989;28;96846;-92
2022/12/13 09:20:29;;;;;;;11.53;7.17;;;;;;;1.58;57.09;99875.38;4943757;28;101037;-94
2022/12/13 09:22:55;;;;;;;13.47;7.60;;;;;;;1.44;57.07;99803.00;4940198;28;101157;-85
2022/12/13 09:25:22;;;;;;;12.67;7.70;;;;;;;1.92;56.46;99889.00;4957413;28;98387;-86
2022/12/13 09:27:47;;;;;;;9.93;6.30;;;;;;;2.09;56.06;99894.03;4964060;28;97803;-86
2022/12/13 09:30:14;;;;;;;10.07;6.80;;;;;;;1.98;55.69;99832.00;4936821;28;100933;-85
2022/12/13 09:32:40;;;;;;;10.83;7.00;;;;;;;2.01;55.33;99839.75;4981265;28;100772;-85
2022/12/13 09:35:07;;;;;;;11.90;7.03;;;;;;;2.30;54.96;99893.06;4942358;28;96964;-87
2022/12/13 09:37:33;;;;;;;11.13;7.20;;;;;;;2.25;54.67;99859.41;4955104;28;97394;-86
2022/12/13 09:39:58;;;;;;;13.87;6.87;;;;;;;2.54;54.64;99893.75;4938344;28;101896;-85
2022/12/13 09:42:29;;;;;;;11.20;7.23;;;;;;;2.61;54.41;99885.03;4971582;28;97194;-93
2022/12/13 09:45:04;;;;;;;11.17;6.87;;;;;;;2.55;54.01;99873.00;4958321;28;96819;-92
2022/12/13 09:47:30;;;;;;;12.70;6.37;;;;;;;2.57;54.30;99888.53;4955879;28;97114;-89
2022/12/13 09:49:58;;;;;;;11.07;7.23;;;;;;;2.42;53.93;99892.97;4952657;28;101801;-87
2022/12/13 09:52:24;;;;;;;12.33;7.00;;;;;;;2.21;55.10;99867.22;4940140;28;101165;-92
2022/12/13 09:54:55;;;;;;;11.83;7.17;;;;;;;2.14;54.61;99889.72;4938631;28;96901;-80
2022/12/13 09:57:29;;;;;;;14.60;7.63;;;;;;;2.01;55.02;99890.66;4943197;28;96995;-82
2022/12/13 09:59:55;;;;;;;10.13;6.60;;;;;;;2.02;55.10;99895.81;4931032;28;101328;-80
2022/12/13 10:02:24;;;;;;;13.27;6.73;;;;;;;2.09;55.24;99895.78;4932013;28;101358;-82
2022/12/13 10:04:51;;;;;;;10.80;6.90;;;;;;;2.11;54.97;99892.31;4949897;28;97328;-86
2022/12/13 10:07:19;;;;;;;11.13;6.57;;;;;;;2.10;54.94;99882.84;4938181;28;96932;-84
2022/12/13 10:09:45;;;;;;;10.13;6.13;;;;;;;2.18;54.68;99881.06;4953838;28;101560;-85
2022/12/13 10:12:13;;;;;;;11.77;6.57;;;;;;;2.31;54.23;99888.75;4952214;28;101497;-85
2022/12/13 10:14:43;;;;;;;11.90;6.50;;;;;;;2.39;54.71;99879.19;4950130;28;97098;-90
2022/12/13 10:17:14;;;;;;;8.30;5.87;;;;;;;2.51;53.97;99883.41;4952031;28;99053;-87
2022/12/13 10:19:42;;;;;;;12.88;6.75;;;;;;;2.45;53.92;99882.59;4938135;28;101344;-89
2022/12/13 10:22:11;;;;;;;10.40;6.33;;;;;;;2.60;53.81;99891.09;4955622;28;98461;-88
2022/12/13 10:24:49;;;;;;;10.03;6.40;;;;;;;2.65;53.52;99887.59;4954031;28;97270;-88
2022/12/13 10:27:20;;;;;;;12.67;7.10;;;;;;;2.78;53.67;99880.56;4972945;28;96697;-88
2022/12/13 10:30:09;;;;;;;9.88;6.32;;;;;;;2.77;53.77;99876.25;4934685;28;102941;-89
2022/12/13 10:33:04;;;;;;;9.67;6.40;;;;;;;2.78;53.52;99877.13;4982227;28;101208;-84
2022/12/13 10:35:38;;;;;;;11.60;6.87;;;;;;;2.62;53.53;99853.94;4966859;28;97824;-87
2022/12/13 10:38:06;;;;;;;13.67;7.60;;;;;;;2.67;53.36;99878.06;4973832;28;96896;-87
2022/12/13 10:40:35;;;;;;;11.20;7.07;;;;;;;2.59;53.91;99881.59;4970479;28;100029;-87
2022/12/13 10:43:21;;;;;;;13.07;6.90;;;;;;;2.53;53.61;99876.47;4939075;28;101307;-87
2022/12/13 10:45:56;;;;;;;13.37;7.37;;;;;;;2.64;53.97;99883.28;4953577;28;97432;-87
2022/12/13 10:48:26;;;;;;;11.47;6.07;;;;;;;2.78;54.37;99877.13;4977011;28;97209;-86
2022/12/13 10:51:12;;;;;;;9.17;6.03;;;;;;;2.68;53.61;99864.25;4937863;28;101560;-86
2022/12/13 10:53:40;;;;;;;12.63;6.30;;;;;;;2.71;53.67;99872.00;4948443;28;98516;-86
2022/12/13 10:56:05;;;;;;;9.27;5.70;;;;;;;2.53;53.62;99835.00;4943443;28;96709;-87
2022/12/13 10:58:37;;;;;;;10.17;5.87;;;;;;;2.62;53.82;99866.91;4953709;28;97743;-86
2022/12/13 11:01:21;;;;;;;9.33;5.73;;;;;;;2.64;54.22;99857.34;4950874;28;98800;-86
2022/12/13 11:03:59;;;;;;;9.77;5.83;;;;;;;2.78;54.15;99871.94;4968723;28;98426;-84
2022/12/13 11:06:27;;;;;;;8.67;6.13;;;;;;;2.67;53.95;99857.31;4962556;28;96862;-85
2022/12/13 11:08:53;;;;;;;9.50;6.23;;;;;;;2.41;54.45;99836.81;4964836;28;97377;-88
2022/12/13 11:11:27;;;;;;;11.13;6.43;;;;;;;2.34;53.97;99847.28;4942094;28;101279;-87
2022/12/13 11:13:54;;;;;;;8.10;5.90;;;;;;;2.34;54.97;99863.66;4936608;28;101373;-88
2022/12/13 11:16:26;;;;;;;10.00;6.20;;;;;;;2.21;54.94;99849.06;4953239;28;97491;-88
2022/12/13 11:18:55;;;;;;;10.33;6.67;;;;;;;2.15;55.31;99854.31;4934477;28;97215;-89
2022/12/13 11:21:26;;;;;;;10.63;7.23;;;;;;;2.21;55.39;99862.91;4963707;28;101830;-90
2022/12/13 11:23:54;;;;;;;10.33;6.47;;;;;;;2.04;55.46;99836.28;4954035;28;99419;-88
2022/12/13 11:26:21;;;;;;;10.67;6.13;;;;;;;1.98;55.36;99820.78;4936052;28;97280;-90
2022/12/13 11:28:59;;;;;;;10.20;6.40;;;;;;;2.07;55.90;99836.25;4955629;28;97517;-89
2022/12/13 11:31:53;;;;;;;12.60;6.20;;;;;;;2.26;55.69;99855.94;4980120;28;99781;-89
2022/12/13 11:34:21;;;;;;;9.30;5.53;;;;;;;2.15;55.47;99837.06;4979065;28;101447;-88
2022/12/13 11:37:25;;;;;;;10.37;5.90;;;;;;;2.34;55.00;99857.63;4958337;28;97241;-89
2022/12/13 11:40:34;;;;;;;8.43;6.00;;;;;;;2.37;55.02;99855.00;4963258;28;96774;-88
2022/12/13 11:43:32;;;;;;;11.13;6.30;;;;;;;2.29;54.74;99852.47;4917360;28;100928;-87
2022/12/13 11:46:01;;;;;;;8.27;5.37;;;;;;;2.38;54.77;99852.41;4952681;28;100266;-88